Time;durP1;ratioP1;P1;durP2;ratioP2;P2;SDS_P1;SDS_P2;PMS_P1;PMS_P2;Temp;Humidity;BMP_temperature;BMP_pressure;BME280_temperature;BME280_humidity;BME280_pressure;Samples;Min_cycle;Max_cycle;Signal;HPM_P1;HPM_P2
2021/10/10 00:01:35;;;;;;;29.27;15.65;;;;;;;;;;5006783;28;20129;-54
2021/10/10 00:04:00;;;;;;;27.65;16.08;;;;;;;;;;5019524;28;20019;-53
2021/10/10 00:06:25;;;;;;;24.48;14.88;;;;;;;;;;5014834;28;20108;-54
2021/10/10 00:08:51;;;;;;;38.08;17.15;;;;;;;;;;5008361;28;20029;-54
2021/10/10 00:11:16;;;;;;;27.38;15.23;;;;;;;;;;5014325;28;20057;-54
2021/10/10 00:13:41;;;;;;;31.58;15.57;;;;;;;;;;5014886;28;20974;-54
2021/10/10 00:16:06;;;;;;;32.67;15.90;;;;;;;;;;5018807;28;20066;-53
2021/10/10 00:18:32;;;;;;;33.17;15.40;;;;;;;;;;5030629;28;20029;-54
2021/10/10 00:20:57;;;;;;;30.55;17.27;;;;;;;;;;5006634;28;20049;-53
2021/10/10 00:23:22;;;;;;;26.85;15.80;;;;;;;;;;5011564;28;20484;-53
2021/10/10 00:25:47;;;;;;;27.23;15.43;;;;;;;;;;5014054;28;20129;-51
2021/10/10 00:28:13;;;;;;;30.63;15.65;;;;;;;;;;5011708;28;20496;-55
2021/10/10 00:30:38;;;;;;;32.40;16.15;;;;;;;;;;5022417;28;20061;-54
2021/10/10 00:33:03;;;;;;;28.08;16.00;;;;;;;;;;5016911;28;20491;-54
2021/10/10 00:35:30;;;;;;;29.98;16.48;;;;;;;;;;5018418;28;20464;-52
2021/10/10 00:37:55;;;;;;;28.67;15.90;;;;;;;;;;5013990;28;20040;-54
2021/10/10 00:40:20;;;;;;;31.30;15.95;;;;;;;;;;5014485;28;20045;-53
2021/10/10 00:42:45;;;;;;;29.95;16.27;;;;;;;;;;5013987;28;20131;-52
2021/10/10 00:45:11;;;;;;;26.95;15.55;;;;;;;;;;5019678;28;20093;-54
2021/10/10 00:47:37;;;;;;;31.17;17.10;;;;;;;;;;5014357;28;20105;-54
2021/10/10 00:50:02;;;;;;;28.77;15.93;;;;;;;;;;5006255;28;20026;-53
2021/10/10 00:52:27;;;;;;;27.02;15.90;;;;;;;;;;5013808;28;20134;-53
2021/10/10 00:54:52;;;;;;;28.90;15.90;;;;;;;;;;5023675;28;20526;-51
2021/10/10 00:57:18;;;;;;;29.75;16.88;;;;;;;;;;5031180;28;20038;-52
2021/10/10 00:59:44;;;;;;;23.92;15.30;;;;;;;;;;5015277;28;20038;-52
2021/10/10 01:02:09;;;;;;;29.30;16.92;;;;;;;;;;5012411;28;20038;-52
2021/10/10 01:04:34;;;;;;;27.60;15.93;;;;;;;;;;5023777;28;20108;-54
2021/10/10 01:07:00;;;;;;;29.30;16.00;;;;;;;;;;5017911;28;20033;-52
2021/10/10 01:09:26;;;;;;;29.65;16.65;;;;;;;;;;5013131;28;20031;-53
2021/10/10 01:11:51;;;;;;;33.95;17.42;;;;;;;;;;5030759;28;20049;-53
2021/10/10 01:14:16;;;;;;;27.88;16.73;;;;;;;;;;5019715;28;20460;-52
2021/10/10 01:16:41;;;;;;;26.05;16.55;;;;;;;;;;5007339;28;20135;-55
2021/10/10 01:19:07;;;;;;;28.88;17.10;;;;;;;;;;5006488;28;20208;-53
2021/10/10 01:21:32;;;;;;;31.88;17.17;;;;;;;;;;5018630;28;20137;-54
2021/10/10 01:23:57;;;;;;;29.27;16.50;;;;;;;;;;5007385;28;20113;-53
2021/10/10 01:26:22;;;;;;;33.90;17.08;;;;;;;;;;5017852;28;20072;-54
2021/10/10 01:28:48;;;;;;;27.92;17.02;;;;;;;;;;5021641;28;20025;-54
2021/10/10 01:31:13;;;;;;;37.20;19.80;;;;;;;;;;5021299;28;20098;-53
2021/10/10 01:33:38;;;;;;;35.25;18.17;;;;;;;;;;5008023;28;20026;-55
2021/10/10 01:36:04;;;;;;;27.65;17.10;;;;;;;;;;5012637;28;20341;-53
2021/10/10 01:38:29;;;;;;;30.08;15.93;;;;;;;;;;5013249;28;20219;-53
2021/10/10 01:40:55;;;;;;;25.80;15.45;;;;;;;;;;5019447;28;20056;-54
2021/10/10 01:43:20;;;;;;;31.55;16.38;;;;;;;;;;5009748;28;20130;-53
2021/10/10 01:45:45;;;;;;;33.05;18.92;;;;;;;;;;5012140;28;20388;-54
2021/10/10 01:48:10;;;;;;;39.50;20.92;;;;;;;;;;5021412;28;20127;-53
2021/10/10 01:50:37;;;;;;;43.50;22.05;;;;;;;;;;5021940;28;20088;-54
2021/10/10 01:53:02;;;;;;;37.45;20.67;;;;;;;;;;5007297;28;20353;-54
2021/10/10 01:55:27;;;;;;;32.10;18.52;;;;;;;;;;5008162;28;20068;-54
2021/10/10 01:57:52;;;;;;;32.83;17.33;;;;;;;;;;5011680;28;20079;-54
2021/10/10 02:00:17;;;;;;;30.98;17.38;;;;;;;;;;5011849;28;20467;-52
2021/10/10 02:02:43;;;;;;;34.53;17.65;;;;;;;;;;5013689;28;20510;-53
2021/10/10 02:05:08;;;;;;;31.70;16.40;;;;;;;;;;5016850;28;20396;-54
2021/10/10 02:07:34;;;;;;;28.90;16.98;;;;;;;;;;5013129;28;20060;-53
2021/10/10 02:09:59;;;;;;;32.40;16.73;;;;;;;;;;5012522;28;20062;-54
2021/10/10 02:12:24;;;;;;;29.90;17.98;;;;;;;;;;5006370;28;20400;-54
2021/10/10 02:14:49;;;;;;;36.58;18.67;;;;;;;;;;5016210;28;20049;-54
2021/10/10 02:17:14;;;;;;;32.70;18.52;;;;;;;;;;5015797;28;20419;-54
2021/10/10 02:19:40;;;;;;;30.20;17.55;;;;;;;;;;5020229;28;20021;-52
2021/10/10 02:22:05;;;;;;;30.42;17.20;;;;;;;;;;5014171;28;20041;-53
2021/10/10 02:24:30;;;;;;;31.33;18.27;;;;;;;;;;5012860;28;20022;-54
2021/10/10 02:26:55;;;;;;;33.03;18.60;;;;;;;;;;5013891;28;20045;-53
2021/10/10 02:29:20;;;;;;;35.83;20.35;;;;;;;;;;5010409;28;20584;-53
2021/10/10 02:31:46;;;;;;;34.65;19.58;;;;;;;;;;5023315;28;20053;-54
2021/10/10 02:34:12;;;;;;;32.22;18.83;;;;;;;;;;5016957;28;20103;-51
2021/10/10 02:36:37;;;;;;;34.50;18.90;;;;;;;;;;5020768;28;20063;-53
2021/10/10 02:39:03;;;;;;;32.38;19.85;;;;;;;;;;5014842;28;20056;-53
2021/10/10 02:41:28;;;;;;;30.77;15.93;;;;;;;;;;5021624;28;20045;-54
2021/10/10 02:43:53;;;;;;;40.22;21.60;;;;;;;;;;5022259;28;20034;-54
2021/10/10 02:46:18;;;;;;;38.03;20.15;;;;;;;;;;5017852;28;20050;-53
2021/10/10 02:48:44;;;;;;;28.15;16.77;;;;;;;;;;5017517;28;20013;-54
2021/10/10 02:51:09;;;;;;;35.50;18.38;;;;;;;;;;5019689;28;20088;-51
2021/10/10 02:53:34;;;;;;;39.65;20.08;;;;;;;;;;5015545;28;20049;-54
2021/10/10 02:55:59;;;;;;;38.17;20.73;;;;;;;;;;5026003;28;20048;-54
2021/10/10 02:58:24;;;;;;;34.65;20.33;;;;;;;;;;5019092;28;20030;-53
2021/10/10 03:00:50;;;;;;;34.28;19.35;;;;;;;;;;5021042;28;20738;-53
2021/10/10 03:03:15;;;;;;;41.90;20.20;;;;;;;;;;5009979;28;20583;-54
2021/10/10 03:05:40;;;;;;;42.75;21.08;;;;;;;;;;5016730;28;20034;-54
2021/10/10 03:08:05;;;;;;;43.35;22.80;;;;;;;;;;5027574;28;20045;-53
2021/10/10 03:10:30;;;;;;;41.88;22.48;;;;;;;;;;5013872;28;20561;-51
2021/10/10 03:12:56;;;;;;;36.28;19.85;;;;;;;;;;5021713;28;20783;-53
2021/10/10 03:15:21;;;;;;;42.97;21.10;;;;;;;;;;5009606;28;20027;-54
2021/10/10 03:17:46;;;;;;;37.63;21.33;;;;;;;;;;5010750;28;20491;-53
2021/10/10 03:20:12;;;;;;;41.05;19.27;;;;;;;;;;5015059;28;20060;-54
2021/10/10 03:22:38;;;;;;;60.22;24.83;;;;;;;;;;5035694;28;20442;-54
2021/10/10 03:25:03;;;;;;;113.53;39.08;;;;;;;;;;5014539;28;20440;-54
2021/10/10 03:27:28;;;;;;;183.77;53.20;;;;;;;;;;5025126;28;20018;-54
2021/10/10 03:29:54;;;;;;;113.05;35.63;;;;;;;;;;5021566;28;20030;-53
2021/10/10 03:32:19;;;;;;;95.30;32.50;;;;;;;;;;5014409;28;20038;-53
2021/10/10 03:34:44;;;;;;;99.40;34.25;;;;;;;;;;5018738;28;20029;-54
2021/10/10 03:37:09;;;;;;;79.00;27.60;;;;;;;;;;5015228;28;20033;-54
2021/10/10 03:39:34;;;;;;;77.25;30.05;;;;;;;;;;5012505;28;20455;-54
2021/10/10 03:42:00;;;;;;;55.60;24.13;;;;;;;;;;5013408;28;20038;-54
2021/10/10 03:44:25;;;;;;;54.00;25.13;;;;;;;;;;5014502;28;20021;-54
2021/10/10 03:46:50;;;;;;;57.17;25.05;;;;;;;;;;5017958;28;20049;-52
2021/10/10 03:49:15;;;;;;;81.93;36.08;;;;;;;;;;5013342;28;20052;-54
2021/10/10 03:51:41;;;;;;;36.53;20.15;;;;;;;;;;5008503;28;20335;-54
2021/10/10 03:56:40;;;;;;;45.90;23.35;;;;;;;;;;5008879;28;20161;-54
2021/10/10 03:59:05;;;;;;;41.47;20.90;;;;;;;;;;5014362;28;20113;-51
2021/10/10 04:01:31;;;;;;;38.67;21.63;;;;;;;;;;5019933;28;20085;-54
2021/10/10 04:03:56;;;;;;;38.08;20.67;;;;;;;;;;5007633;28;20026;-54
2021/10/10 04:06:21;;;;;;;40.13;21.15;;;;;;;;;;5016983;28;20479;-54
2021/10/10 04:08:46;;;;;;;40.17;20.73;;;;;;;;;;5011853;28;20036;-54
2021/10/10 04:11:11;;;;;;;42.75;21.00;;;;;;;;;;5015411;28;20049;-54
2021/10/10 04:13:37;;;;;;;42.50;20.85;;;;;;;;;;5008323;28;20065;-54
2021/10/10 04:16:03;;;;;;;48.17;23.35;;;;;;;;;;5022690;28;20764;-52
2021/10/10 04:18:28;;;;;;;50.47;23.73;;;;;;;;;;5012426;28;20033;-54
2021/10/10 04:20:53;;;;;;;41.95;22.17;;;;;;;;;;5017815;28;20093;-53
2021/10/10 04:23:18;;;;;;;47.00;24.10;;;;;;;;;;5015689;28;20034;-54
2021/10/10 04:25:43;;;;;;;47.55;23.80;;;;;;;;;;5010886;28;20109;-54
2021/10/10 04:28:09;;;;;;;39.10;21.55;;;;;;;;;;5018412;28;20224;-53
2021/10/10 04:30:34;;;;;;;52.08;24.35;;;;;;;;;;5010242;28;20129;-52
2021/10/10 04:32:59;;;;;;;49.65;23.63;;;;;;;;;;5011648;28;20055;-54
2021/10/10 04:35:25;;;;;;;38.30;19.52;;;;;;;;;;5013110;28;20356;-52
2021/10/10 04:37:50;;;;;;;36.38;18.98;;;;;;;;;;5011233;28;20034;-53
2021/10/10 04:40:16;;;;;;;34.65;19.73;;;;;;;;;;5011630;28;20056;-53
2021/10/10 04:42:41;;;;;;;37.28;20.10;;;;;;;;;;5022954;28;20063;-52
2021/10/10 04:45:06;;;;;;;34.25;18.75;;;;;;;;;;5007387;28;20105;-53
2021/10/10 04:47:32;;;;;;;31.65;18.25;;;;;;;;;;5007616;28;20445;-53
2021/10/10 04:49:58;;;;;;;34.50;18.67;;;;;;;;;;5012801;28;20040;-53
2021/10/10 04:52:23;;;;;;;35.83;18.38;;;;;;;;;;5013771;28;20029;-53
2021/10/10 04:54:49;;;;;;;39.97;19.25;;;;;;;;;;5020988;28;20080;-54
2021/10/10 04:57:14;;;;;;;37.95;19.98;;;;;;;;;;5017028;28;20038;-54
2021/10/10 04:59:40;;;;;;;45.78;22.60;;;;;;;;;;5009126;28;20096;-54
2021/10/10 05:02:05;;;;;;;49.42;24.90;;;;;;;;;;5020311;28;20096;-53
2021/10/10 05:04:32;;;;;;;53.90;25.35;;;;;;;;;;5012475;28;20495;-53
2021/10/10 05:06:57;;;;;;;50.35;23.13;;;;;;;;;;5015294;28;20389;-54
2021/10/10 05:09:22;;;;;;;43.35;20.67;;;;;;;;;;5016279;28;20057;-53
2021/10/10 05:11:47;;;;;;;42.03;20.45;;;;;;;;;;5011187;28;20046;-54
2021/10/10 05:14:12;;;;;;;38.53;19.63;;;;;;;;;;5013168;28;20071;-54
2021/10/10 05:16:38;;;;;;;39.58;20.08;;;;;;;;;;5013536;28;20029;-53
2021/10/10 05:19:03;;;;;;;38.83;20.75;;;;;;;;;;5011276;28;20022;-52
2021/10/10 05:21:29;;;;;;;32.63;18.17;;;;;;;;;;5007332;28;20041;-52
2021/10/10 05:23:54;;;;;;;37.83;20.10;;;;;;;;;;5013576;28;20076;-53
2021/10/10 05:26:19;;;;;;;43.30;20.63;;;;;;;;;;5015336;28;20041;-54
2021/10/10 05:28:44;;;;;;;39.38;20.88;;;;;;;;;;5022090;28;20022;-51
2021/10/10 05:31:10;;;;;;;46.83;21.02;;;;;;;;;;5014266;28;20626;-54
2021/10/10 05:33:35;;;;;;;69.38;22.65;;;;;;;;;;5015115;28;20033;-53
2021/10/10 05:36:00;;;;;;;132.25;21.38;;;;;;;;;;5011480;28;20471;-53
2021/10/10 05:38:27;;;;;;;100.68;18.45;;;;;;;;;;5010618;28;20519;-53
2021/10/10 05:40:52;;;;;;;107.28;19.70;;;;;;;;;;5005410;28;20156;-54
2021/10/10 05:43:17;;;;;;;93.82;18.77;;;;;;;;;;5014628;28;20715;-51
2021/10/10 05:45:43;;;;;;;106.88;19.90;;;;;;;;;;5006840;28;20026;-54
2021/10/10 05:48:08;;;;;;;150.77;20.30;;;;;;;;;;5009627;28;20030;-51
2021/10/10 05:50:33;;;;;;;81.47;19.83;;;;;;;;;;5013306;28;20423;-52
2021/10/10 05:53:06;;;;;;;56.25;20.05;;;;;;;;;;5014451;28;20365;-55
2021/10/10 05:55:31;;;;;;;128.55;23.08;;;;;;;;;;5018840;28;20124;-50
2021/10/10 05:58:01;;;;;;;85.38;24.02;;;;;;;;;;5019878;28;20642;-53
2021/10/10 06:00:27;;;;;;;105.63;21.95;;;;;;;;;;5019916;28;20482;-53
2021/10/10 06:02:52;;;;;;;116.05;22.40;;;;;;;;;;5021375;28;20136;-51
2021/10/10 06:05:17;;;;;;;116.95;22.27;;;;;;;;;;5029111;28;20033;-52
2021/10/10 06:07:42;;;;;;;97.30;22.42;;;;;;;;;;5017331;28;20021;-54
2021/10/10 06:10:08;;;;;;;124.13;22.15;;;;;;;;;;5020627;28;20029;-55
2021/10/10 06:12:33;;;;;;;65.05;21.75;;;;;;;;;;5014952;28;20053;-54
2021/10/10 06:14:59;;;;;;;97.22;21.55;;;;;;;;;;5023012;28;20064;-52
2021/10/10 06:17:24;;;;;;;110.13;23.33;;;;;;;;;;5019146;28;20030;-53
2021/10/10 06:19:49;;;;;;;153.18;22.77;;;;;;;;;;5021434;28;20033;-54
2021/10/10 06:22:14;;;;;;;89.30;24.02;;;;;;;;;;5016789;28;20037;-55
2021/10/10 06:24:40;;;;;;;68.78;22.95;;;;;;;;;;5008135;28;20026;-55
2021/10/10 06:27:05;;;;;;;70.45;22.67;;;;;;;;;;5024164;28;20044;-55
2021/10/10 06:29:30;;;;;;;66.28;21.33;;;;;;;;;;5020237;28;20086;-54
2021/10/10 06:31:56;;;;;;;73.72;22.13;;;;;;;;;;5024947;28;20044;-54
2021/10/10 06:34:21;;;;;;;86.80;19.42;;;;;;;;;;5022123;28;20076;-54
2021/10/10 06:36:46;;;;;;;64.85;20.13;;;;;;;;;;5012926;28;20137;-54
2021/10/10 06:39:11;;;;;;;67.00;19.58;;;;;;;;;;5013848;28;20029;-54
2021/10/10 06:41:37;;;;;;;92.30;18.80;;;;;;;;;;5013368;28;20048;-53
2021/10/10 06:44:03;;;;;;;161.40;23.67;;;;;;;;;;5019557;28;20060;-54
2021/10/10 06:46:28;;;;;;;106.68;23.00;;;;;;;;;;5015230;28;20137;-54
2021/10/10 06:48:53;;;;;;;99.75;22.85;;;;;;;;;;5020246;28;20127;-55
2021/10/10 06:51:18;;;;;;;62.30;20.83;;;;;;;;;;5012481;28;20046;-53
2021/10/10 06:53:44;;;;;;;61.03;18.70;;;;;;;;;;5016959;28;20507;-55
2021/10/10 06:56:09;;;;;;;53.88;18.55;;;;;;;;;;5018126;28;20034;-54
2021/10/10 06:58:34;;;;;;;68.25;17.98;;;;;;;;;;5021774;28;20039;-55
2021/10/10 07:00:59;;;;;;;92.88;18.45;;;;;;;;;;5015409;28;20053;-55
2021/10/10 07:03:25;;;;;;;97.45;18.20;;;;;;;;;;5017859;28;20110;-56
2021/10/10 07:05:50;;;;;;;102.40;19.60;;;;;;;;;;5025767;28;20038;-52
2021/10/10 07:08:15;;;;;;;69.88;19.85;;;;;;;;;;5011908;28;20025;-53
2021/10/10 07:10:41;;;;;;;67.03;18.83;;;;;;;;;;5009171;28;20151;-54
2021/10/10 07:13:07;;;;;;;79.10;18.73;;;;;;;;;;5015915;28;20487;-54
2021/10/10 07:15:33;;;;;;;76.68;16.92;;;;;;;;;;5026786;28;20446;-54
2021/10/10 07:18:00;;;;;;;57.50;17.40;;;;;;;;;;5013216;28;20033;-52
2021/10/10 07:20:40;;;;;;;37.88;16.48;;;;;;;;;;5033518;28;20049;-52
2021/10/10 07:23:14;;;;;;;44.83;16.98;;;;;;;;;;5018392;28;20064;-54
2021/10/10 07:25:40;;;;;;;31.05;17.60;;;;;;;;;;5020945;28;20105;-55
2021/10/10 07:28:05;;;;;;;46.10;15.93;;;;;;;;;;5009782;28;20132;-55
2021/10/10 07:30:30;;;;;;;42.15;15.25;;;;;;;;;;5017947;28;20029;-54
2021/10/10 07:32:55;;;;;;;35.63;16.48;;;;;;;;;;5023021;28;20079;-55
2021/10/10 07:35:21;;;;;;;65.78;16.60;;;;;;;;;;5023410;28;20033;-54
2021/10/10 07:37:46;;;;;;;47.95;16.83;;;;;;;;;;5011982;28;20061;-54
2021/10/10 07:40:11;;;;;;;30.42;15.27;;;;;;;;;;5028298;28;20439;-55
2021/10/10 07:42:37;;;;;;;59.15;16.00;;;;;;;;;;5022118;28;20021;-54
2021/10/10 07:45:09;;;;;;;31.15;15.20;;;;;;;;;;5024248;28;20491;-54
2021/10/10 07:47:47;;;;;;;33.30;14.50;;;;;;;;;;5023423;28;20109;-55
2021/10/10 07:50:13;;;;;;;102.78;17.08;;;;;;;;;;5021348;28;20038;-54
2021/10/10 07:52:38;;;;;;;237.50;18.80;;;;;;;;;;5021054;28;20071;-55
2021/10/10 07:55:04;;;;;;;132.93;18.50;;;;;;;;;;5026562;28;20049;-55
2021/10/10 07:57:30;;;;;;;24.90;16.48;;;;;;;;;;5017230;28;20113;-56
2021/10/10 07:59:55;;;;;;;39.85;17.88;;;;;;;;;;5015020;28;20077;-55
2021/10/10 08:02:20;;;;;;;54.35;16.65;;;;;;;;;;5023270;28;20083;-55
2021/10/10 08:04:45;;;;;;;30.15;16.65;;;;;;;;;;5021620;28;20112;-54
2021/10/10 08:07:11;;;;;;;62.58;16.45;;;;;;;;;;5013509;28;20041;-55
2021/10/10 08:09:36;;;;;;;52.10;15.23;;;;;;;;;;5012668;28;20475;-54
2021/10/10 08:12:02;;;;;;;79.90;15.20;;;;;;;;;;5017559;28;20484;-55
2021/10/10 08:14:27;;;;;;;162.85;15.48;;;;;;;;;;5020697;28;20036;-55
2021/10/10 08:16:52;;;;;;;122.13;16.67;;;;;;;;;;5016658;28;20037;-54
2021/10/10 08:19:18;;;;;;;115.40;16.27;;;;;;;;;;5019952;28;20113;-56
2021/10/10 08:21:43;;;;;;;66.05;14.85;;;;;;;;;;5020008;28;20774;-57
2021/10/10 08:24:08;;;;;;;233.20;17.73;;;;;;;;;;5013861;28;20056;-56
2021/10/10 08:26:33;;;;;;;426.90;21.38;;;;;;;;;;5019056;28;20049;-56
2021/10/10 08:28:59;;;;;;;135.65;19.17;;;;;;;;;;5018578;28;20017;-57
2021/10/10 08:31:24;;;;;;;287.40;19.85;;;;;;;;;;5020991;28;20032;-53
2021/10/10 08:33:49;;;;;;;139.52;17.45;;;;;;;;;;5017274;28;20026;-55
2021/10/10 08:36:15;;;;;;;160.43;18.27;;;;;;;;;;5024006;28;20041;-54
2021/10/10 08:38:41;;;;;;;37.85;17.15;;;;;;;;;;5022461;28;20518;-54
2021/10/10 08:41:06;;;;;;;252.32;19.17;;;;;;;;;;5037351;28;20045;-54
2021/10/10 08:43:32;;;;;;;77.93;17.40;;;;;;;;;;5022722;28;20087;-54
2021/10/10 08:46:02;;;;;;;34.03;17.00;;;;;;;;;;5023515;28;20631;-55
2021/10/10 08:48:27;;;;;;;126.82;16.55;;;;;;;;;;5018777;28;20029;-56
2021/10/10 08:50:54;;;;;;;288.63;19.70;;;;;;;;;;5011708;28;20424;-54
2021/10/10 08:53:20;;;;;;;37.83;16.10;;;;;;;;;;5016203;28;20493;-53
2021/10/10 08:55:45;;;;;;;103.03;17.38;;;;;;;;;;5017943;28;20091;-55
2021/10/10 08:58:11;;;;;;;203.77;18.65;;;;;;;;;;5016698;28;20025;-55
2021/10/10 09:00:41;;;;;;;196.73;18.13;;;;;;;;;;5013615;28;20511;-54
2021/10/10 09:03:10;;;;;;;111.93;17.70;;;;;;;;;;5038786;28;20398;-55
2021/10/10 09:05:36;;;;;;;34.87;18.30;;;;;;;;;;5008468;28;20072;-54
2021/10/10 09:08:01;;;;;;;98.07;18.55;;;;;;;;;;5014133;28;20078;-53
2021/10/10 09:10:31;;;;;;;76.68;19.48;;;;;;;;;;5017558;28;20049;-56
2021/10/10 09:13:07;;;;;;;32.88;19.13;;;;;;;;;;5013998;28;20064;-55
2021/10/10 09:15:32;;;;;;;36.15;19.33;;;;;;;;;;5009367;28;20364;-55
2021/10/10 09:17:58;;;;;;;35.17;19.17;;;;;;;;;;5011988;28;20133;-55
2021/10/10 09:20:30;;;;;;;33.10;19.58;;;;;;;;;;5013332;28;20053;-54
2021/10/10 09:22:56;;;;;;;32.55;21.27;;;;;;;;;;5019613;28;20028;-55
2021/10/10 09:25:21;;;;;;;29.35;19.15;;;;;;;;;;5012327;28;20030;-54
2021/10/10 09:27:47;;;;;;;36.30;20.15;;;;;;;;;;5007364;28;20033;-55
2021/10/10 09:30:12;;;;;;;31.42;20.08;;;;;;;;;;5006648;28;20404;-55
2021/10/10 09:32:41;;;;;;;33.88;20.80;;;;;;;;;;5006271;28;20048;-55
2021/10/10 09:35:07;;;;;;;26.33;17.77;;;;;;;;;;5013789;28;20032;-55
2021/10/10 09:37:42;;;;;;;31.05;17.67;;;;;;;;;;5032505;28;20021;-55
2021/10/10 09:42:38;;;;;;;35.95;18.25;;;;;;;;;;5019866;28;20032;-55
2021/10/10 09:45:12;;;;;;;29.63;17.83;;;;;;;;;;5014564;28;20018;-55
2021/10/10 09:47:52;;;;;;;28.98;18.48;;;;;;;;;;5014734;28;20499;-56
2021/10/10 09:50:17;;;;;;;27.27;18.45;;;;;;;;;;5010257;28;20040;-55
2021/10/10 09:52:42;;;;;;;26.88;17.75;;;;;;;;;;5015965;28;20553;-55
2021/10/10 09:55:09;;;;;;;29.73;17.90;;;;;;;;;;5006749;28;20026;-55
2021/10/10 09:57:35;;;;;;;31.58;18.88;;;;;;;;;;5010617;28;20704;-54
2021/10/10 10:00:00;;;;;;;31.63;18.45;;;;;;;;;;5008790;28;20071;-56
2021/10/10 10:02:41;;;;;;;27.85;17.88;;;;;;;;;;5026070;28;20037;-55
2021/10/10 10:05:06;;;;;;;26.20;17.58;;;;;;;;;;5013149;28;20113;-56
2021/10/10 10:07:31;;;;;;;27.00;18.60;;;;;;;;;;5006745;28;20646;-55
2021/10/10 10:09:56;;;;;;;27.10;18.05;;;;;;;;;;5021915;28;20030;-56
2021/10/10 10:12:22;;;;;;;27.85;18.45;;;;;;;;;;5009089;28;20050;-55
2021/10/10 10:14:52;;;;;;;25.85;18.00;;;;;;;;;;5016870;28;20034;-55
2021/10/10 10:17:18;;;;;;;34.97;21.60;;;;;;;;;;5018300;28;20038;-56
2021/10/10 10:19:44;;;;;;;39.83;24.20;;;;;;;;;;5017054;28;20037;-55
2021/10/10 10:22:09;;;;;;;28.05;18.52;;;;;;;;;;5006134;28;20399;-55
2021/10/10 10:24:35;;;;;;;25.75;17.77;;;;;;;;;;5027467;28;20406;-54
2021/10/10 10:27:00;;;;;;;30.67;18.65;;;;;;;;;;5017750;28;20495;-56
2021/10/10 10:29:26;;;;;;;25.85;17.73;;;;;;;;;;5018833;28;20022;-55
2021/10/10 10:31:52;;;;;;;23.55;16.77;;;;;;;;;;5029291;28;20040;-56
2021/10/10 10:34:24;;;;;;;21.92;15.35;;;;;;;;;;5022271;28;20033;-56
2021/10/10 10:36:49;;;;;;;19.42;15.07;;;;;;;;;;5016994;28;20530;-54
2021/10/10 10:39:33;;;;;;;21.05;15.93;;;;;;;;;;5005792;28;20034;-56
2021/10/10 10:41:59;;;;;;;19.67;15.20;;;;;;;;;;5005851;28;20042;-54
2021/10/10 10:44:36;;;;;;;20.13;15.13;;;;;;;;;;5027492;28;20115;-54
2021/10/10 10:47:10;;;;;;;21.08;14.75;;;;;;;;;;5015098;28;20041;-54
2021/10/10 10:49:51;;;;;;;21.20;14.48;;;;;;;;;;5014297;28;20028;-54
2021/10/10 10:52:32;;;;;;;22.67;15.55;;;;;;;;;;5009057;28;20140;-54
2021/10/10 10:54:58;;;;;;;20.75;15.50;;;;;;;;;;5009663;28;20076;-54
2021/10/10 10:57:43;;;;;;;24.23;16.67;;;;;;;;;;5009388;28;20041;-54
2021/10/10 11:00:27;;;;;;;22.98;15.93;;;;;;;;;;5009231;28;20030;-54
2021/10/10 11:02:58;;;;;;;23.95;14.98;;;;;;;;;;5017729;28;20029;-55
2021/10/10 11:05:43;;;;;;;21.50;13.25;;;;;;;;;;5020640;28;20392;-56
2021/10/10 11:08:14;;;;;;;20.33;13.57;;;;;;;;;;5015684;28;20025;-56
2021/10/10 11:10:39;;;;;;;20.55;10.75;;;;;;;;;;5016513;28;20037;-55
2021/10/10 11:13:04;;;;;;;19.48;12.50;;;;;;;;;;5015012;28;20400;-55
2021/10/10 11:15:47;;;;;;;21.25;14.23;;;;;;;;;;5018712;28;20041;-55
2021/10/10 11:18:12;;;;;;;25.77;14.75;;;;;;;;;;5031045;28;20149;-54
2021/10/10 11:20:37;;;;;;;22.30;14.75;;;;;;;;;;5022858;28;20160;-54
2021/10/10 11:23:03;;;;;;;24.08;14.85;;;;;;;;;;5031894;28;20065;-57
2021/10/10 11:25:31;;;;;;;23.85;15.60;;;;;;;;;;5027970;28;20384;-56
2021/10/10 11:27:56;;;;;;;20.20;14.43;;;;;;;;;;5025053;28;20033;-55
2021/10/10 11:30:28;;;;;;;24.73;15.40;;;;;;;;;;5013466;28;20029;-55
2021/10/10 11:32:55;;;;;;;20.73;14.63;;;;;;;;;;5009357;28;20829;-52
2021/10/10 11:35:21;;;;;;;21.35;15.25;;;;;;;;;;5013019;28;20046;-57
2021/10/10 11:37:58;;;;;;;22.08;13.38;;;;;;;;;;5021010;28;20040;-56
2021/10/10 11:40:23;;;;;;;24.35;14.52;;;;;;;;;;5020039;28;20176;-55
2021/10/10 11:42:49;;;;;;;19.50;13.70;;;;;;;;;;5023228;28;20173;-56
2021/10/10 11:45:20;;;;;;;19.13;13.32;;;;;;;;;;5024037;28;20026;-54
2021/10/10 11:47:48;;;;;;;19.60;13.23;;;;;;;;;;5012216;28;20025;-55
2021/10/10 11:50:13;;;;;;;18.73;11.95;;;;;;;;;;5015109;28;20025;-54
2021/10/10 11:52:41;;;;;;;18.45;12.82;;;;;;;;;;5012950;28;20423;-55
2021/10/10 11:55:19;;;;;;;17.63;12.40;;;;;;;;;;5016608;28;20380;-56
2021/10/10 11:57:51;;;;;;;20.48;13.07;;;;;;;;;;5013505;28;20146;-56
2021/10/10 12:00:19;;;;;;;17.85;11.68;;;;;;;;;;5027484;28;20333;-55
2021/10/10 12:02:45;;;;;;;19.55;12.30;;;;;;;;;;5011354;28;20105;-55
2021/10/10 12:05:17;;;;;;;19.33;13.18;;;;;;;;;;5012230;28;20120;-52
2021/10/10 12:07:43;;;;;;;19.83;12.02;;;;;;;;;;5009845;28;20025;-55
2021/10/10 12:10:09;;;;;;;20.55;13.05;;;;;;;;;;5015883;28;20052;-54
2021/10/10 12:12:37;;;;;;;18.98;12.23;;;;;;;;;;5009433;28;20463;-55
2021/10/10 12:15:02;;;;;;;21.13;13.23;;;;;;;;;;5013867;28;20445;-54
2021/10/10 12:17:30;;;;;;;24.83;14.20;;;;;;;;;;5033159;28;20029;-55
2021/10/10 12:19:56;;;;;;;21.98;14.20;;;;;;;;;;5013748;28;20789;-56
2021/10/10 12:22:23;;;;;;;24.65;13.48;;;;;;;;;;5019237;28;20078;-55
2021/10/10 12:24:48;;;;;;;20.08;11.48;;;;;;;;;;5009293;28;20780;-55
2021/10/10 12:27:23;;;;;;;21.45;12.27;;;;;;;;;;5023367;28;20029;-53
2021/10/10 12:29:48;;;;;;;17.40;12.38;;;;;;;;;;5016334;28;20030;-54
2021/10/10 12:32:30;;;;;;;23.40;13.02;;;;;;;;;;5012440;28;20399;-54
2021/10/10 12:35:09;;;;;;;23.92;13.35;;;;;;;;;;5014016;28;20572;-54
2021/10/10 12:37:34;;;;;;;19.75;12.38;;;;;;;;;;5007679;28;20374;-53
2021/10/10 12:39:59;;;;;;;19.67;13.35;;;;;;;;;;5015481;28;20462;-54
2021/10/10 12:42:24;;;;;;;23.58;13.02;;;;;;;;;;5017871;28;20038;-54
2021/10/10 12:45:10;;;;;;;19.30;11.95;;;;;;;;;;5018480;28;20025;-54
2021/10/10 12:47:35;;;;;;;22.08;13.43;;;;;;;;;;5020995;28;20046;-54
2021/10/10 12:50:01;;;;;;;21.65;13.50;;;;;;;;;;5018888;28;20092;-55
2021/10/10 12:52:36;;;;;;;19.77;13.73;;;;;;;;;;5011069;28;20380;-55
2021/10/10 12:55:01;;;;;;;22.38;14.45;;;;;;;;;;5019061;28;20567;-55
2021/10/10 12:57:28;;;;;;;19.50;12.73;;;;;;;;;;5017864;28;20116;-54
2021/10/10 12:59:54;;;;;;;20.75;12.20;;;;;;;;;;5016016;28;20278;-54
2021/10/10 13:02:19;;;;;;;22.17;12.13;;;;;;;;;;5007619;28;20452;-53
2021/10/10 13:04:44;;;;;;;21.02;11.85;;;;;;;;;;5007494;28;20022;-54
2021/10/10 13:07:11;;;;;;;19.63;11.80;;;;;;;;;;5013504;28;20434;-54
2021/10/10 13:09:37;;;;;;;21.58;11.63;;;;;;;;;;5013527;28;20025;-52
2021/10/10 13:12:03;;;;;;;20.02;11.57;;;;;;;;;;5020296;28;20049;-52
2021/10/10 13:14:28;;;;;;;16.70;10.73;;;;;;;;;;5018812;28;20030;-56
2021/10/10 13:16:53;;;;;;;19.15;11.00;;;;;;;;;;5013884;28;20038;-55
2021/10/10 13:19:19;;;;;;;17.58;10.57;;;;;;;;;;5022961;28;20037;-56
2021/10/10 13:21:46;;;;;;;18.75;10.30;;;;;;;;;;5011265;28;20519;-55
2021/10/10 13:24:11;;;;;;;15.55;10.32;;;;;;;;;;5012501;28;20041;-54
2021/10/10 13:26:37;;;;;;;22.65;10.40;;;;;;;;;;5006922;28;20034;-54
2021/10/10 13:29:02;;;;;;;15.75;9.73;;;;;;;;;;5016845;28;20355;-54
2021/10/10 13:31:27;;;;;;;20.58;10.50;;;;;;;;;;5011571;28;20049;-54
2021/10/10 13:33:53;;;;;;;19.23;10.35;;;;;;;;;;5014407;28;20462;-54
2021/10/10 13:36:18;;;;;;;17.67;10.50;;;;;;;;;;5013324;28;20608;-53
2021/10/10 13:38:43;;;;;;;17.33;9.25;;;;;;;;;;5014973;28;20047;-54
2021/10/10 13:41:08;;;;;;;19.83;10.18;;;;;;;;;;5006021;28;20054;-55
2021/10/10 13:43:34;;;;;;;21.15;10.07;;;;;;;;;;5006644;28;20029;-55
2021/10/10 13:45:59;;;;;;;19.23;10.48;;;;;;;;;;5006417;28;20040;-54
2021/10/10 13:48:25;;;;;;;16.58;9.98;;;;;;;;;;5010053;28;20022;-54
2021/10/10 13:50:50;;;;;;;16.70;11.13;;;;;;;;;;5015990;28;20038;-54
2021/10/10 13:53:16;;;;;;;22.17;10.57;;;;;;;;;;5017532;28;20531;-54
2021/10/10 13:55:41;;;;;;;16.92;10.63;;;;;;;;;;5012326;28;20455;-56
2021/10/10 13:58:06;;;;;;;19.42;10.80;;;;;;;;;;5019518;28;20063;-54
2021/10/10 14:00:32;;;;;;;21.13;10.88;;;;;;;;;;5006946;28;20066;-55
2021/10/10 14:02:57;;;;;;;19.77;11.23;;;;;;;;;;5020030;28;20430;-55
2021/10/10 14:05:22;;;;;;;23.88;11.60;;;;;;;;;;5013131;28;20037;-54
2021/10/10 14:07:48;;;;;;;17.13;11.00;;;;;;;;;;5011589;28;20034;-53
2021/10/10 14:10:13;;;;;;;19.17;11.50;;;;;;;;;;5015842;28;20033;-55
2021/10/10 14:12:38;;;;;;;18.63;11.45;;;;;;;;;;5016616;28;20065;-53
2021/10/10 14:15:03;;;;;;;19.70;11.73;;;;;;;;;;5017536;28;20038;-53
2021/10/10 14:17:29;;;;;;;19.08;11.38;;;;;;;;;;5011309;28;20022;-54